Time;durP1;ratioP1;P1;durP2;ratioP2;P2;SDS_P1;SDS_P2;PMS_P1;PMS_P2;Temp;Humidity;BMP_temperature;BMP_pressure;BME280_temperature;BME280_humidity;BME280_pressure;Samples;Min_cycle;Max_cycle;Signal;HPM_P1;HPM_P2
2022/04/04 00:02:04;;;;;;;6.38;2.90;;;;;;;;;;4949272;28;20027;-84
2022/04/04 00:04:30;;;;;;;6.13;3.28;;;;;;;;;;4948408;28;20070;-83
2022/04/04 00:06:55;;;;;;;5.20;2.80;;;;;;;;;;4948964;28;20503;-80
2022/04/04 00:09:21;;;;;;;5.53;3.15;;;;;;;;;;4949825;28;20760;-84
2022/04/04 00:11:46;;;;;;;4.97;3.00;;;;;;;;;;4949453;28;20034;-83
2022/04/04 00:14:12;;;;;;;5.03;3.10;;;;;;;;;;4943151;28;20032;-83
2022/04/04 00:16:38;;;;;;;8.45;3.35;;;;;;;;;;4946327;29;20093;-80
2022/04/04 00:19:05;;;;;;;7.05;3.28;;;;;;;;;;4977236;28;20118;-80
2022/04/04 00:21:32;;;;;;;5.82;3.28;;;;;;;;;;4964601;28;20039;-80
2022/04/04 00:23:57;;;;;;;4.82;2.75;;;;;;;;;;4948046;28;20502;-80
2022/04/04 00:26:22;;;;;;;6.10;3.50;;;;;;;;;;4980412;28;20031;-84
2022/04/04 00:28:49;;;;;;;5.88;3.33;;;;;;;;;;4949423;28;20023;-83
2022/04/04 00:31:14;;;;;;;5.95;3.50;;;;;;;;;;4950901;28;20499;-82
2022/04/04 00:33:40;;;;;;;5.72;3.53;;;;;;;;;;4947994;28;20034;-83
2022/04/04 00:36:06;;;;;;;5.20;3.17;;;;;;;;;;4948084;28;20395;-80
2022/04/04 00:38:32;;;;;;;7.93;3.72;;;;;;;;;;4949524;28;20504;-83
2022/04/04 00:40:57;;;;;;;6.47;3.28;;;;;;;;;;4974770;28;20035;-81
2022/04/04 00:43:23;;;;;;;7.25;3.50;;;;;;;;;;4951585;28;20386;-84
2022/04/04 00:45:49;;;;;;;6.25;3.28;;;;;;;;;;4949441;28;20027;-81
2022/04/04 00:48:14;;;;;;;5.88;3.30;;;;;;;;;;4945903;28;20035;-80
2022/04/04 00:50:40;;;;;;;5.65;3.17;;;;;;;;;;4945492;28;20483;-80
2022/04/04 00:53:08;;;;;;;6.20;3.35;;;;;;;;;;4980583;28;20023;-83
2022/04/04 00:55:34;;;;;;;6.43;3.35;;;;;;;;;;4948276;28;20113;-84
2022/04/04 00:58:00;;;;;;;5.57;3.40;;;;;;;;;;4947550;28;20547;-84
2022/04/04 01:00:25;;;;;;;6.00;3.60;;;;;;;;;;4947089;28;20383;-80
2022/04/04 01:02:51;;;;;;;5.00;3.42;;;;;;;;;;4979725;28;20027;-81
2022/04/04 01:05:16;;;;;;;5.40;3.30;;;;;;;;;;4948498;28;20031;-80
2022/04/04 01:07:42;;;;;;;6.70;3.70;;;;;;;;;;4948274;28;20384;-84
2022/04/04 01:10:09;;;;;;;6.65;3.80;;;;;;;;;;4950995;28;20496;-84
2022/04/04 01:12:34;;;;;;;5.75;3.53;;;;;;;;;;4947061;28;20475;-80
2022/04/04 01:15:00;;;;;;;6.63;3.88;;;;;;;;;;4949098;28;20078;-80
2022/04/04 01:17:27;;;;;;;6.13;3.70;;;;;;;;;;4947486;28;20031;-80
2022/04/04 01:19:53;;;;;;;9.38;4.10;;;;;;;;;;4946035;28;20031;-80
2022/04/04 01:22:18;;;;;;;7.82;3.78;;;;;;;;;;4949676;28;20515;-84
2022/04/04 01:24:44;;;;;;;6.30;4.10;;;;;;;;;;4945944;28;20036;-81
2022/04/04 01:27:11;;;;;;;7.95;4.10;;;;;;;;;;4948333;28;20640;-80
2022/04/04 01:29:37;;;;;;;6.35;4.10;;;;;;;;;;4948767;28;20118;-83
2022/04/04 01:32:04;;;;;;;6.93;4.28;;;;;;;;;;4950204;28;20130;-80
2022/04/04 01:34:30;;;;;;;7.97;4.65;;;;;;;;;;4946419;28;20027;-84
2022/04/04 01:36:56;;;;;;;6.85;4.15;;;;;;;;;;4950974;28;20439;-84
2022/04/04 01:39:21;;;;;;;6.13;4.40;;;;;;;;;;4947839;28;20047;-84
2022/04/04 01:41:47;;;;;;;6.82;4.50;;;;;;;;;;4951253;28;20126;-84
2022/04/04 01:44:12;;;;;;;7.97;4.85;;;;;;;;;;4945826;28;21634;-80
2022/04/04 01:46:37;;;;;;;8.32;5.38;;;;;;;;;;4947025;28;20038;-84
2022/04/04 01:49:04;;;;;;;8.38;5.07;;;;;;;;;;4942433;28;20399;-83
2022/04/04 01:51:31;;;;;;;6.50;4.85;;;;;;;;;;4948749;28;20031;-83
2022/04/04 01:53:58;;;;;;;10.32;6.07;;;;;;;;;;4952322;28;20063;-83
2022/04/04 01:56:23;;;;;;;8.77;5.55;;;;;;;;;;4956574;28;20019;-83
2022/04/04 01:58:49;;;;;;;7.47;5.57;;;;;;;;;;4954613;28;20031;-83
2022/04/04 02:01:18;;;;;;;9.65;5.95;;;;;;;;;;4954086;28;20035;-84
2022/04/04 02:03:46;;;;;;;9.32;5.82;;;;;;;;;;4951655;28;20433;-80
2022/04/04 02:06:13;;;;;;;8.68;6.25;;;;;;;;;;4952004;29;20039;-79
2022/04/04 02:08:38;;;;;;;8.90;6.22;;;;;;;;;;4951425;28;20193;-83
2022/04/04 02:11:05;;;;;;;8.38;6.07;;;;;;;;;;4951262;28;20519;-83
2022/04/04 02:13:30;;;;;;;8.25;5.75;;;;;;;;;;4951764;28;20030;-83
2022/04/04 02:16:00;;;;;;;11.23;6.55;;;;;;;;;;4948699;29;20023;-84
2022/04/04 02:18:26;;;;;;;9.90;6.63;;;;;;;;;;4953676;28;20603;-83
2022/04/04 02:20:51;;;;;;;9.05;6.72;;;;;;;;;;4950123;28;21519;-83
2022/04/04 02:23:18;;;;;;;8.43;6.20;;;;;;;;;;4952985;28;20067;-83
2022/04/04 02:25:48;;;;;;;9.30;6.40;;;;;;;;;;4949600;28;20075;-84
2022/04/04 02:28:14;;;;;;;9.45;6.60;;;;;;;;;;4952630;28;20055;-83
2022/04/04 02:30:40;;;;;;;11.23;6.57;;;;;;;;;;4947761;28;20049;-78
2022/04/04 02:33:07;;;;;;;8.32;6.05;;;;;;;;;;4952204;28;20491;-79
2022/04/04 02:35:32;;;;;;;10.73;6.38;;;;;;;;;;4963872;28;20054;-83
2022/04/04 02:37:58;;;;;;;11.90;6.35;;;;;;;;;;4980974;28;20125;-84
2022/04/04 02:40:24;;;;;;;9.65;5.80;;;;;;;;;;4950890;28;20032;-79
2022/04/04 02:42:49;;;;;;;9.77;6.35;;;;;;;;;;4950734;28;20035;-79
2022/04/04 02:45:15;;;;;;;10.90;6.28;;;;;;;;;;4950730;28;20555;-83
2022/04/04 02:47:41;;;;;;;9.68;6.03;;;;;;;;;;4953874;28;20035;-83
2022/04/04 02:50:08;;;;;;;10.57;6.00;;;;;;;;;;4949597;28;20479;-84
2022/04/04 02:52:33;;;;;;;9.63;5.90;;;;;;;;;;4981199;28;20023;-83
2022/04/04 02:56:28;;;;;;;10.43;6.22;;;;;;;;;;4951286;29;20054;-79
2022/04/04 02:57:44;;;;;;;9.45;5.68;;;;;;;;;;4948764;28;20093;-79
2022/04/04 03:00:10;;;;;;;11.82;5.88;;;;;;;;;;4952347;28;20447;-84
2022/04/04 03:02:35;;;;;;;9.75;5.88;;;;;;;;;;4978553;28;20027;-79
2022/04/04 03:05:00;;;;;;;12.23;6.00;;;;;;;;;;4947126;28;20078;-79
2022/04/04 03:07:26;;;;;;;8.68;6.03;;;;;;;;;;4950138;28;20102;-79
2022/04/04 03:09:51;;;;;;;10.60;6.10;;;;;;;;;;4952322;28;20035;-80
2022/04/04 03:12:18;;;;;;;8.85;5.90;;;;;;;;;;4949620;28;20039;-80
2022/04/04 03:14:44;;;;;;;9.98;6.13;;;;;;;;;;4950315;28;20038;-83
2022/04/04 03:17:09;;;;;;;10.60;7.05;;;;;;;;;;4950932;28;20122;-80
2022/04/04 03:19:35;;;;;;;10.98;6.30;;;;;;;;;;4951586;28;20575;-80
2022/04/04 03:22:00;;;;;;;9.25;6.13;;;;;;;;;;4949359;28;20392;-80
2022/04/04 03:24:25;;;;;;;13.00;6.22;;;;;;;;;;4950986;28;20472;-81
2022/04/04 03:26:51;;;;;;;8.68;6.20;;;;;;;;;;4949880;28;20067;-80
2022/04/04 03:29:16;;;;;;;8.82;5.93;;;;;;;;;;4952118;28;20039;-79
2022/04/04 03:31:42;;;;;;;10.13;5.82;;;;;;;;;;4947104;28;20034;-83
2022/04/04 03:34:07;;;;;;;10.70;6.05;;;;;;;;;;4980973;28;20054;-79
2022/04/04 03:36:32;;;;;;;8.38;5.93;;;;;;;;;;4949910;28;20027;-85
2022/04/04 03:38:58;;;;;;;9.45;6.00;;;;;;;;;;4948804;28;20023;-80
2022/04/04 03:41:23;;;;;;;8.48;5.78;;;;;;;;;;4945067;28;20035;-84
2022/04/04 03:43:48;;;;;;;8.88;5.57;;;;;;;;;;4947772;28;20558;-84
2022/04/04 03:46:14;;;;;;;8.35;5.65;;;;;;;;;;4978485;28;20455;-84
2022/04/04 03:48:40;;;;;;;9.25;5.68;;;;;;;;;;4977903;28;20484;-85
2022/04/04 03:51:06;;;;;;;12.73;6.32;;;;;;;;;;4956306;28;20037;-85
2022/04/04 03:53:32;;;;;;;8.48;5.40;;;;;;;;;;4946682;29;20031;-80
2022/04/04 03:55:58;;;;;;;11.18;5.50;;;;;;;;;;4950986;28;20499;-80
2022/04/04 03:58:23;;;;;;;11.13;5.55;;;;;;;;;;4949653;28;20105;-84
2022/04/04 04:00:49;;;;;;;7.53;5.68;;;;;;;;;;4981879;28;20233;-84
2022/04/04 04:03:14;;;;;;;10.98;6.53;;;;;;;;;;4946126;28;20455;-81
2022/04/04 04:05:39;;;;;;;10.63;6.30;;;;;;;;;;4947952;28;20027;-79
2022/04/04 04:08:06;;;;;;;10.10;5.70;;;;;;;;;;4950352;28;20412;-80
2022/04/04 04:10:32;;;;;;;8.82;5.85;;;;;;;;;;4952279;28;20046;-80
2022/04/04 04:12:58;;;;;;;10.07;5.50;;;;;;;;;;4948713;29;20031;-81
2022/04/04 04:15:25;;;;;;;9.43;5.47;;;;;;;;;;4950179;28;20085;-79
2022/04/04 04:17:52;;;;;;;8.05;5.35;;;;;;;;;;4948025;28;20860;-82
2022/04/04 04:20:26;;;;;;;8.23;5.43;;;;;;;;;;4951920;28;20026;-84
2022/04/04 04:23:02;;;;;;;10.13;5.78;;;;;;;;;;4948716;28;20031;-84
2022/04/04 04:25:30;;;;;;;9.95;5.53;;;;;;;;;;4948861;28;20027;-84
2022/04/04 04:27:59;;;;;;;10.82;5.20;;;;;;;;;;4949250;28;20491;-80
2022/04/04 04:30:25;;;;;;;8.32;5.60;;;;;;;;;;4965724;28;20038;-84
2022/04/04 04:32:51;;;;;;;8.30;5.97;;;;;;;;;;4949815;28;20031;-80
2022/04/04 04:35:18;;;;;;;12.50;5.55;;;;;;;;;;4947262;28;20031;-84
2022/04/04 04:37:44;;;;;;;10.02;5.70;;;;;;;;;;4964799;28;20027;-85
2022/04/04 04:40:11;;;;;;;10.15;6.13;;;;;;;;;;4949289;28;20024;-84
2022/04/04 04:42:37;;;;;;;9.82;6.15;;;;;;;;;;4949531;29;20031;-80
2022/04/04 04:45:05;;;;;;;11.15;6.60;;;;;;;;;;4944807;28;20034;-83
2022/04/04 04:47:30;;;;;;;10.20;5.85;;;;;;;;;;4947785;28;20027;-84
2022/04/04 04:49:57;;;;;;;9.48;5.97;;;;;;;;;;4949306;28;20046;-84
2022/04/04 04:52:23;;;;;;;8.93;5.63;;;;;;;;;;4950220;28;20162;-84
2022/04/04 04:54:49;;;;;;;10.70;6.40;;;;;;;;;;4948473;29;20514;-80
2022/04/04 04:57:15;;;;;;;11.55;6.10;;;;;;;;;;4945928;28;20079;-79
2022/04/04 04:59:41;;;;;;;10.65;6.35;;;;;;;;;;4945425;28;20035;-85
2022/04/04 05:02:06;;;;;;;11.15;6.30;;;;;;;;;;4941638;28;20031;-81
2022/04/04 05:04:32;;;;;;;14.07;6.78;;;;;;;;;;4948002;28;20031;-80
2022/04/04 05:06:57;;;;;;;9.55;6.35;;;;;;;;;;4947879;28;20090;-84
2022/04/04 05:09:22;;;;;;;8.63;5.78;;;;;;;;;;4952088;28;20085;-84
2022/04/04 05:11:48;;;;;;;9.63;6.18;;;;;;;;;;4947933;28;20063;-84
2022/04/04 05:14:15;;;;;;;11.38;6.90;;;;;;;;;;4950942;28;20031;-80
2022/04/04 05:16:44;;;;;;;9.13;6.53;;;;;;;;;;4947231;28;20041;-80
2022/04/04 05:19:11;;;;;;;10.43;6.10;;;;;;;;;;4949755;28;20395;-84
2022/04/04 05:21:37;;;;;;;9.90;6.20;;;;;;;;;;4948689;28;20530;-81
2022/04/04 05:24:04;;;;;;;10.52;6.45;;;;;;;;;;4946209;29;20046;-80
2022/04/04 05:26:29;;;;;;;12.05;6.18;;;;;;;;;;4952602;28;20023;-84
2022/04/04 05:28:55;;;;;;;10.20;6.53;;;;;;;;;;4953106;28;20058;-80
2022/04/04 05:31:20;;;;;;;7.97;5.63;;;;;;;;;;4950383;28;20039;-81
2022/04/04 05:33:46;;;;;;;11.52;6.38;;;;;;;;;;4949331;28;20493;-84
2022/04/04 05:36:11;;;;;;;15.27;6.60;;;;;;;;;;4954297;28;20079;-81
2022/04/04 05:38:36;;;;;;;9.32;6.32;;;;;;;;;;4953677;28;20035;-84
2022/04/04 05:41:02;;;;;;;10.60;6.95;;;;;;;;;;4949638;28;20069;-81
2022/04/04 05:43:27;;;;;;;12.73;6.53;;;;;;;;;;4949690;29;20031;-85
2022/04/04 05:45:53;;;;;;;10.65;6.68;;;;;;;;;;4981925;28;20407;-85
2022/04/04 05:48:18;;;;;;;10.75;6.65;;;;;;;;;;4953279;28;20162;-85
2022/04/04 05:50:44;;;;;;;9.77;6.07;;;;;;;;;;4952986;28;20035;-81
2022/04/04 05:53:09;;;;;;;9.70;6.32;;;;;;;;;;4949991;28;20039;-85
2022/04/04 05:55:34;;;;;;;9.73;6.32;;;;;;;;;;4952965;28;20058;-85
2022/04/04 05:58:00;;;;;;;11.77;6.45;;;;;;;;;;4955466;28;20027;-86
2022/04/04 06:00:25;;;;;;;10.18;6.82;;;;;;;;;;4952829;28;20047;-81
2022/04/04 06:02:51;;;;;;;9.52;6.32;;;;;;;;;;4952493;28;20043;-80
2022/04/04 06:05:16;;;;;;;11.38;6.85;;;;;;;;;;4954889;28;20495;-81
2022/04/04 06:07:42;;;;;;;11.63;6.47;;;;;;;;;;4956168;28;20043;-86
2022/04/04 06:10:09;;;;;;;11.20;6.68;;;;;;;;;;4990079;28;20018;-85
2022/04/04 06:12:38;;;;;;;10.65;6.95;;;;;;;;;;4954672;28;20047;-85
2022/04/04 06:15:04;;;;;;;9.85;6.43;;;;;;;;;;4956733;28;20162;-81
2022/04/04 06:17:29;;;;;;;10.07;6.32;;;;;;;;;;4983719;28;20121;-86
2022/04/04 06:19:58;;;;;;;12.32;7.22;;;;;;;;;;4954986;28;20034;-81
2022/04/04 06:22:23;;;;;;;10.57;6.55;;;;;;;;;;4984040;28;20461;-85
2022/04/04 06:24:50;;;;;;;10.32;6.53;;;;;;;;;;4958841;28;20111;-80
2022/04/04 06:27:15;;;;;;;10.60;6.72;;;;;;;;;;4953708;28;20491;-86
2022/04/04 06:29:42;;;;;;;9.95;6.15;;;;;;;;;;4955109;28;20038;-84
2022/04/04 06:32:07;;;;;;;9.45;6.13;;;;;;;;;;4951570;29;20054;-86
2022/04/04 06:34:33;;;;;;;13.38;7.30;;;;;;;;;;4982664;28;20027;-85
2022/04/04 06:36:58;;;;;;;12.10;6.82;;;;;;;;;;4951551;28;20700;-81
2022/04/04 06:39:23;;;;;;;9.50;6.70;;;;;;;;;;4954874;28;20479;-89
2022/04/04 06:41:51;;;;;;;10.50;7.00;;;;;;;;;;4952285;28;20110;-81
2022/04/04 06:44:16;;;;;;;9.70;7.10;;;;;;;;;;4970051;28;20027;-87
2022/04/04 06:46:43;;;;;;;9.85;6.30;;;;;;;;;;4949806;28;20439;-87
2022/04/04 06:49:08;;;;;;;10.70;6.97;;;;;;;;;;4945266;28;20062;-81
2022/04/04 06:51:35;;;;;;;8.43;5.85;;;;;;;;;;4953387;28;20031;-88
2022/04/04 06:54:03;;;;;;;9.38;6.25;;;;;;;;;;4949181;28;20047;-80
2022/04/04 06:56:28;;;;;;;11.35;6.28;;;;;;;;;;4954537;28;20031;-81
2022/04/04 06:58:53;;;;;;;9.93;6.20;;;;;;;;;;4980828;28;20447;-84
2022/04/04 07:01:19;;;;;;;10.48;6.22;;;;;;;;;;4948215;28;20050;-81
2022/04/04 07:03:44;;;;;;;8.90;5.88;;;;;;;;;;4952003;28;20381;-81
2022/04/04 07:06:10;;;;;;;8.52;6.07;;;;;;;;;;4955585;28;20106;-82
2022/04/04 07:08:36;;;;;;;10.15;6.10;;;;;;;;;;4987196;28;20817;-82
2022/04/04 07:11:03;;;;;;;11.18;6.07;;;;;;;;;;4955882;28;20038;-81
2022/04/04 07:13:29;;;;;;;10.93;6.43;;;;;;;;;;4951343;29;20035;-80
2022/04/04 07:15:54;;;;;;;11.45;6.70;;;;;;;;;;4953399;28;20035;-80
2022/04/04 07:18:19;;;;;;;11.43;6.38;;;;;;;;;;4980428;28;20478;-81
2022/04/04 07:20:45;;;;;;;10.02;6.45;;;;;;;;;;4952932;29;20154;-85
2022/04/04 07:23:10;;;;;;;9.43;6.50;;;;;;;;;;4979036;28;20031;-79
2022/04/04 07:25:36;;;;;;;9.82;6.35;;;;;;;;;;4947529;28;20506;-79
2022/04/04 07:28:01;;;;;;;9.88;6.40;;;;;;;;;;4952789;29;20117;-86
2022/04/04 07:30:27;;;;;;;10.90;6.85;;;;;;;;;;4951716;28;20490;-79
2022/04/04 07:32:52;;;;;;;11.45;6.70;;;;;;;;;;4951305;29;20041;-79
2022/04/04 07:35:20;;;;;;;10.85;6.80;;;;;;;;;;4951871;28;20057;-79
2022/04/04 07:37:47;;;;;;;9.98;6.93;;;;;;;;;;4949463;28;20043;-83
2022/04/04 07:40:15;;;;;;;10.63;6.93;;;;;;;;;;4951293;28;20411;-79
2022/04/04 07:42:42;;;;;;;10.07;6.63;;;;;;;;;;4951379;28;20018;-81
2022/04/04 07:45:09;;;;;;;12.15;7.20;;;;;;;;;;4949680;28;20177;-78
2022/04/04 07:47:35;;;;;;;12.05;6.85;;;;;;;;;;4954910;28;20031;-79
2022/04/04 07:50:01;;;;;;;13.13;7.05;;;;;;;;;;4979359;28;20074;-79
2022/04/04 07:52:27;;;;;;;11.40;7.47;;;;;;;;;;4954944;28;20054;-79
2022/04/04 07:54:53;;;;;;;15.45;7.40;;;;;;;;;;4950621;28;20031;-80
2022/04/04 07:57:20;;;;;;;12.18;7.43;;;;;;;;;;4951755;28;20041;-79
2022/04/04 07:59:45;;;;;;;10.10;7.68;;;;;;;;;;4947169;28;20027;-79
2022/04/04 08:02:11;;;;;;;12.27;7.53;;;;;;;;;;4982409;28;20138;-84
2022/04/04 08:04:36;;;;;;;10.85;7.05;;;;;;;;;;4952626;28;20062;-87
2022/04/04 08:07:02;;;;;;;12.50;7.60;;;;;;;;;;4953434;28;20098;-88
2022/04/04 08:09:27;;;;;;;10.75;7.25;;;;;;;;;;4955021;28;20074;-88
2022/04/04 08:11:54;;;;;;;12.85;7.78;;;;;;;;;;4953706;28;20538;-79
2022/04/04 08:14:20;;;;;;;14.55;7.70;;;;;;;;;;4953093;28;20070;-84
2022/04/04 08:16:45;;;;;;;12.75;7.70;;;;;;;;;;4951594;28;20054;-80
2022/04/04 08:19:13;;;;;;;11.32;7.47;;;;;;;;;;4951929;28;20062;-79
2022/04/04 08:21:41;;;;;;;11.35;7.13;;;;;;;;;;4951721;29;20038;-85
2022/04/04 08:24:07;;;;;;;14.07;7.93;;;;;;;;;;4950421;28;20487;-91
2022/04/04 08:26:33;;;;;;;12.38;7.80;;;;;;;;;;4954493;28;20058;-79
2022/04/04 08:29:00;;;;;;;9.48;7.00;;;;;;;;;;4951998;28;20015;-79
2022/04/04 08:31:31;;;;;;;10.48;7.32;;;;;;;;;;4955066;28;20039;-80
2022/04/04 08:33:57;;;;;;;11.63;7.55;;;;;;;;;;4949311;28;20058;-79
2022/04/04 08:36:22;;;;;;;11.80;7.47;;;;;;;;;;4953079;29;20491;-79
2022/04/04 08:38:47;;;;;;;10.30;7.50;;;;;;;;;;4949748;28;20026;-92
2022/04/04 08:41:13;;;;;;;10.93;7.55;;;;;;;;;;4965006;28;20078;-80
2022/04/04 08:43:43;;;;;;;14.15;7.72;;;;;;;;;;4951578;28;20027;-79
2022/04/04 08:46:09;;;;;;;15.10;8.35;;;;;;;;;;4951759;28;20028;-83
2022/04/04 08:48:37;;;;;;;10.57;7.78;;;;;;;;;;4967436;28;20195;-91
2022/04/04 08:51:02;;;;;;;11.88;7.80;;;;;;;;;;4943891;29;20028;-84
2022/04/04 08:53:29;;;;;;;15.63;8.02;;;;;;;;;;4949684;28;22062;-89
2022/04/04 08:55:57;;;;;;;13.85;7.82;;;;;;;;;;4949395;28;20024;-78
2022/04/04 08:58:23;;;;;;;11.15;8.20;;;;;;;;;;4950539;29;20019;-80
2022/04/04 09:00:48;;;;;;;20.13;9.32;;;;;;;;;;4951079;28;20077;-84
2022/04/04 09:03:19;;;;;;;12.88;7.32;;;;;;;;;;4951361;29;20023;-81
2022/04/04 09:05:53;;;;;;;10.73;7.65;;;;;;;;;;4948687;29;20031;-92
2022/04/04 09:08:20;;;;;;;13.32;8.07;;;;;;;;;;4946746;28;20043;-90
2022/04/04 09:10:45;;;;;;;12.60;8.20;;;;;;;;;;4950267;28;20454;-84
2022/04/04 09:13:15;;;;;;;11.70;7.88;;;;;;;;;;4946188;29;20087;-83
2022/04/04 09:15:59;;;;;;;15.15;8.52;;;;;;;;;;4949742;28;20035;-80
2022/04/04 09:18:36;;;;;;;12.90;8.00;;;;;;;;;;4950404;28;20034;-79
2022/04/04 09:21:06;;;;;;;11.25;8.27;;;;;;;;;;4948736;28;20039;-91
2022/04/04 09:23:50;;;;;;;11.48;7.88;;;;;;;;;;4946057;28;20062;-83
2022/04/04 09:26:29;;;;;;;12.00;8.23;;;;;;;;;;4951517;28;20567;-90
2022/04/04 09:28:55;;;;;;;13.00;8.40;;;;;;;;;;4948179;29;20039;-88
2022/04/04 09:31:21;;;;;;;12.48;8.25;;;;;;;;;;4950364;28;20491;-80
2022/04/04 09:33:46;;;;;;;12.70;8.30;;;;;;;;;;4950573;28;20033;-89
2022/04/04 09:36:12;;;;;;;12.23;8.43;;;;;;;;;;4950913;29;20550;-80
2022/04/04 09:38:42;;;;;;;12.20;8.93;;;;;;;;;;4949027;28;20023;-85
2022/04/04 09:41:13;;;;;;;13.88;8.73;;;;;;;;;;4951583;28;20422;-80
2022/04/04 09:43:52;;;;;;;12.25;9.15;;;;;;;;;;4949866;28;20479;-85
2022/04/04 09:46:18;;;;;;;14.77;8.77;;;;;;;;;;4949448;28;20083;-84
2022/04/04 09:49:17;;;;;;;13.00;8.80;;;;;;;;;;4955294;28;20050;-81
2022/04/04 09:51:50;;;;;;;13.98;8.85;;;;;;;;;;4927175;28;20423;-80
2022/04/04 09:54:28;;;;;;;14.00;9.10;;;;;;;;;;4950754;28;20023;-79
2022/04/04 09:57:16;;;;;;;13.15;8.40;;;;;;;;;;4951316;28;20045;-84
2022/04/04 09:59:42;;;;;;;12.75;8.85;;;;;;;;;;4950071;28;20042;-85
2022/04/04 10:02:09;;;;;;;15.07;9.10;;;;;;;;;;4947049;28;20086;-79
2022/04/04 10:04:38;;;;;;;12.25;9.60;;;;;;;;;;4980977;28;20035;-89
2022/04/04 10:07:08;;;;;;;17.73;9.82;;;;;;;;;;4945327;28;20047;-79
2022/04/04 10:09:36;;;;;;;14.93;9.40;;;;;;;;;;4960553;28;20060;-88
2022/04/04 10:12:03;;;;;;;15.20;10.15;;;;;;;;;;4952221;28;20093;-80
2022/04/04 10:14:30;;;;;;;14.02;9.60;;;;;;;;;;4949864;28;20166;-85
2022/04/04 10:16:56;;;;;;;14.10;9.73;;;;;;;;;;4953865;28;20039;-86
2022/04/04 10:19:25;;;;;;;13.85;9.65;;;;;;;;;;4952649;28;20077;-79
2022/04/04 10:21:50;;;;;;;16.27;9.10;;;;;;;;;;4952478;28;20071;-84
2022/04/04 10:24:16;;;;;;;13.52;9.98;;;;;;;;;;4952700;28;20066;-81
2022/04/04 10:26:46;;;;;;;12.98;8.60;;;;;;;;;;4953223;28;20272;-80
2022/04/04 10:29:16;;;;;;;13.45;9.20;;;;;;;;;;4953379;28;20480;-84
2022/04/04 10:31:53;;;;;;;13.65;9.45;;;;;;;;;;4956938;28;20388;-80
2022/04/04 10:34:24;;;;;;;13.40;8.32;;;;;;;;;;4954350;28;20031;-80
2022/04/04 10:36:56;;;;;;;12.90;8.80;;;;;;;;;;4955745;28;20023;-84
2022/04/04 10:39:55;;;;;;;14.85;8.60;;;;;;;;;;4951666;29;20047;-87
2022/04/04 10:42:25;;;;;;;12.63;8.63;;;;;;;;;;4962045;28;20039;-80
2022/04/04 10:45:02;;;;;;;14.45;9.02;;;;;;;;;;4951306;28;20027;-80
2022/04/04 10:47:29;;;;;;;12.20;8.27;;;;;;;;;;4952961;28;20042;-82
2022/04/04 10:49:55;;;;;;;12.88;8.80;;;;;;;;;;4952696;28;20046;-82
2022/04/04 10:52:38;;;;;;;12.57;9.02;;;;;;;;;;4948975;28;20110;-86
2022/04/04 10:55:34;;;;;;;12.30;8.77;;;;;;;;;;4955872;28;20082;-80
2022/04/04 10:58:08;;;;;;;13.55;9.00;;;;;;;;;;4967050;28;20476;-80
2022/04/04 11:00:52;;;;;;;11.05;8.80;;;;;;;;;;4950520;28;20126;-80
2022/04/04 11:03:31;;;;;;;11.75;8.82;;;;;;;;;;4954477;28;20033;-86
2022/04/04 11:09:22;;;;;;;13.40;8.50;;;;;;;;;;4952010;28;20611;-80
2022/04/04 11:11:52;;;;;;;10.25;7.78;;;;;;;;;;4951146;28;20554;-79
2022/04/04 11:14:42;;;;;;;11.45;8.60;;;;;;;;;;4952783;29;20081;-81
2022/04/04 11:17:52;;;;;;;11.52;8.20;;;;;;;;;;4948858;28;20035;-83
2022/04/04 11:20:10;;;;;;;16.60;9.38;;;;;;;;;;4959662;28;20043;-88
2022/04/04 11:22:51;;;;;;;11.70;7.60;;;;;;;;;;4953810;28;20082;-89
2022/04/04 11:25:19;;;;;;;12.65;7.88;;;;;;;;;;4956937;28;20058;-84
2022/04/04 11:27:48;;;;;;;12.90;8.15;;;;;;;;;;4948528;28;20130;-89
2022/04/04 11:30:16;;;;;;;12.77;8.32;;;;;;;;;;4952275;28;20106;-78
2022/04/04 11:32:42;;;;;;;11.57;8.18;;;;;;;;;;4956255;28;20467;-79
2022/04/04 11:35:18;;;;;;;9.90;7.57;;;;;;;;;;4957284;28;20507;-83
2022/04/04 11:37:46;;;;;;;12.15;8.00;;;;;;;;;;4949485;28;20035;-84
2022/04/04 11:40:18;;;;;;;10.93;8.50;;;;;;;;;;4951717;28;20189;-88
2022/04/04 11:42:47;;;;;;;11.25;8.10;;;;;;;;;;4950836;28;20110;-81
2022/04/04 11:45:22;;;;;;;14.75;8.02;;;;;;;;;;4951310;28;20082;-89
2022/04/04 11:48:02;;;;;;;10.40;7.32;;;;;;;;;;4952439;28;20042;-88
2022/04/04 11:50:30;;;;;;;9.32;7.40;;;;;;;;;;4943503;28;20404;-79
2022/04/04 11:52:59;;;;;;;10.73;7.53;;;;;;;;;;4951586;28;20448;-79
2022/04/04 11:55:27;;;;;;;10.88;7.38;;;;;;;;;;4952821;28;20028;-81
2022/04/04 11:58:13;;;;;;;9.82;8.02;;;;;;;;;;4955724;28;20480;-88
2022/04/04 12:00:42;;;;;;;10.20;7.57;;;;;;;;;;4955231;28;20058;-80
2022/04/04 12:03:12;;;;;;;10.10;8.23;;;;;;;;;;4949232;28;20032;-89
2022/04/04 12:05:43;;;;;;;9.88;7.07;;;;;;;;;;4957071;28;20031;-88
2022/04/04 12:08:09;;;;;;;9.77;8.07;;;;;;;;;;4957301;28;20050;-79
2022/04/04 12:10:37;;;;;;;9.25;7.50;;;;;;;;;;4953793;28;20543;-88
2022/04/04 12:13:19;;;;;;;9.40;7.68;;;;;;;;;;4949154;29;20023;-81
2022/04/04 12:15:46;;;;;;;9.68;7.15;;;;;;;;;;4949165;28;20023;-87
2022/04/04 12:18:21;;;;;;;9.35;7.30;;;;;;;;;;4952430;28;20377;-81
2022/04/04 12:20:48;;;;;;;9.75;7.57;;;;;;;;;;4957171;28;20046;-79
2022/04/04 12:26:21;;;;;;;9.70;6.68;;;;;;;;;;4954308;28;20046;-81
2022/04/04 12:28:49;;;;;;;8.75;7.15;;;;;;;;;;4951242;29;20121;-83
2022/04/04 12:31:20;;;;;;;9.35;7.43;;;;;;;;;;4979549;28;20034;-81
2022/04/04 12:34:06;;;;;;;9.90;7.07;;;;;;;;;;4953018;28;20022;-84
2022/04/04 12:36:38;;;;;;;9.48;7.63;;;;;;;;;;4949151;28;20070;-87
2022/04/04 12:39:05;;;;;;;9.80;6.93;;;;;;;;;;4949757;28;20066;-84
2022/04/04 12:41:57;;;;;;;10.48;7.50;;;;;;;;;;4954289;28;20031;-80
2022/04/04 12:44:28;;;;;;;8.25;6.15;;;;;;;;;;4953252;28;20031;-81
2022/04/04 12:47:08;;;;;;;8.70;7.13;;;;;;;;;;4949798;28;20171;-80
2022/04/04 12:49:34;;;;;;;8.98;6.80;;;;;;;;;;4951638;28;20106;-87
2022/04/04 12:52:05;;;;;;;7.55;6.55;;;;;;;;;;4951519;29;20154;-88
2022/04/04 12:54:36;;;;;;;9.57;7.38;;;;;;;;;;4950441;28;20423;-86
2022/04/04 12:57:07;;;;;;;9.18;6.80;;;;;;;;;;4961261;28;20049;-81
2022/04/04 12:59:56;;;;;;;9.15;7.13;;;;;;;;;;4952676;28;20055;-82
2022/04/04 13:02:31;;;;;;;8.20;6.63;;;;;;;;;;4948195;28;20031;-81
2022/04/04 13:05:18;;;;;;;8.27;6.35;;;;;;;;;;4950194;28;20515;-79
2022/04/04 13:07:51;;;;;;;9.63;6.40;;;;;;;;;;4949153;28;20539;-79
2022/04/04 13:10:17;;;;;;;7.93;6.32;;;;;;;;;;4952888;28;20031;-85
2022/04/04 13:12:43;;;;;;;7.10;6.10;;;;;;;;;;4949028;28;20090;-81
2022/04/04 13:15:09;;;;;;;8.18;6.35;;;;;;;;;;4950099;28;20113;-79
2022/04/04 13:17:37;;;;;;;7.70;6.05;;;;;;;;;;4949781;29;20369;-82
2022/04/04 13:20:04;;;;;;;7.75;5.57;;;;;;;;;;4954761;28;20027;-86
2022/04/04 13:22:30;;;;;;;8.75;6.38;;;;;;;;;;4953248;28;20027;-81
2022/04/04 13:24:55;;;;;;;6.72;5.47;;;;;;;;;;4954110;28;20395;-81
2022/04/04 13:27:24;;;;;;;6.22;5.43;;;;;;;;;;4952612;28;20027;-80
2022/04/04 13:29:50;;;;;;;6.60;5.38;;;;;;;;;;4954435;28;20369;-79
2022/04/04 13:32:16;;;;;;;7.05;5.15;;;;;;;;;;4951216;28;20133;-83
2022/04/04 13:34:42;;;;;;;7.45;5.50;;;;;;;;;;4948853;28;20060;-86
2022/04/04 13:37:08;;;;;;;5.90;4.72;;;;;;;;;;4951922;28;20031;-82
2022/04/04 13:39:33;;;;;;;6.03;4.95;;;;;;;;;;4946081;28;20035;-82
2022/04/04 13:41:59;;;;;;;6.47;5.25;;;;;;;;;;4949455;28;20543;-79
2022/04/04 13:44:25;;;;;;;6.47;5.05;;;;;;;;;;4985980;28;20026;-83
2022/04/04 13:46:50;;;;;;;6.10;4.90;;;;;;;;;;4948844;28;20034;-79
2022/04/04 13:49:15;;;;;;;6.25;4.97;;;;;;;;;;4952837;28;20523;-80
2022/04/04 13:51:41;;;;;;;7.00;5.47;;;;;;;;;;4952622;28;20050;-83
2022/04/04 13:54:06;;;;;;;5.97;4.90;;;;;;;;;;4984231;28;20019;-80
2022/04/04 13:56:33;;;;;;;6.40;4.95;;;;;;;;;;4954521;28;20480;-81
2022/04/04 13:58:59;;;;;;;7.53;5.20;;;;;;;;;;4953757;28;20034;-83
2022/04/04 14:01:26;;;;;;;5.88;5.00;;;;;;;;;;4986218;28;20054;-80
2022/04/04 14:03:52;;;;;;;6.05;5.00;;;;;;;;;;4949630;28;20041;-83
2022/04/04 14:06:19;;;;;;;5.97;5.00;;;;;;;;;;4949909;28;20031;-83
2022/04/04 14:08:44;;;;;;;7.03;5.15;;;;;;;;;;4955931;28;20031;-83
2022/04/04 14:11:12;;;;;;;5.85;5.05;;;;;;;;;;4954110;28;20039;-83
2022/04/04 14:13:40;;;;;;;6.70;4.68;;;;;;;;;;4953485;28;20114;-83
2022/04/04 14:16:06;;;;;;;7.25;5.40;;;;;;;;;;4954381;28;20399;-82
2022/04/04 14:18:32;;;;;;;6.00;4.93;;;;;;;;;;4951782;28;20027;-83
2022/04/04 14:20:58;;;;;;;6.72;5.05;;;;;;;;;;4955284;28;20035;-82
2022/04/04 14:23:24;;;;;;;5.57;4.78;;;;;;;;;;4952935;28;20039;-83
2022/04/04 14:25:52;;;;;;;5.75;4.82;;;;;;;;;;4946293;28;20030;-82
2022/04/04 14:28:18;;;;;;;6.65;4.82;;;;;;;;;;4957685;28;20054;-82
2022/04/04 14:30:44;;;;;;;5.93;4.80;;;;;;;;;;4948277;28;20027;-82
2022/04/04 14:33:10;;;;;;;5.93;5.03;;;;;;;;;;4951645;28;20109;-80
2022/04/04 14:35:36;;;;;;;5.50;4.70;;;;;;;;;;4945508;28;20038;-80
2022/04/04 14:38:01;;;;;;;5.97;4.80;;;;;;;;;;4948975;28;20031;-81
2022/04/04 14:40:27;;;;;;;5.55;4.50;;;;;;;;;;4947618;28;20700;-82
2022/04/04 14:42:52;;;;;;;5.55;4.63;;;;;;;;;;4945110;28;20038;-82
2022/04/04 14:45:17;;;;;;;5.93;4.90;;;;;;;;;;4944722;29;20043;-82
2022/04/04 14:47:43;;;;;;;5.70;4.53;;;;;;;;;;4944769;28;20027;-82